sensor_id;sensor_type;location;lat;lon;timestamp;P1;durP1;ratioP1;P2;durP2;ratioP2
70487;SDS011;57976;48.174;16.370;2022-10-30T00:01:50;16.30;;;8.30;;
70487;SDS011;57976;48.174;16.370;2022-10-30T00:03:56;16.50;;;8.20;;
70487;SDS011;57976;48.174;16.370;2022-10-30T00:06:02;15.90;;;8.50;;
70487;SDS011;57976;48.174;16.370;2022-10-30T00:08:08;15.80;;;7.70;;
70487;SDS011;57976;48.174;16.370;2022-10-30T00:10:14;13.50;;;7.30;;
70487;SDS011;57976;48.174;16.370;2022-10-30T00:12:20;14.50;;;7.30;;
70487;SDS011;57976;48.174;16.370;2022-10-30T00:14:24;13.10;;;6.90;;
70487;SDS011;57976;48.174;16.370;2022-10-30T00:16:29;15.00;;;7.40;;
70487;SDS011;57976;48.174;16.370;2022-10-30T00:18:35;14.40;;;7.50;;
70487;SDS011;57976;48.174;16.370;2022-10-30T00:20:43;13.70;;;7.10;;
70487;SDS011;57976;48.174;16.370;2022-10-30T00:22:48;14.20;;;7.40;;
70487;SDS011;57976;48.174;16.370;2022-10-30T00:24:52;13.70;;;7.20;;
70487;SDS011;57976;48.174;16.370;2022-10-30T00:26:57;13.80;;;7.30;;
70487;SDS011;57976;48.174;16.370;2022-10-30T00:29:02;13.80;;;7.50;;
70487;SDS011;57976;48.174;16.370;2022-10-30T00:31:06;14.40;;;7.80;;
70487;SDS011;57976;48.174;16.370;2022-10-30T00:33:11;13.90;;;7.00;;
70487;SDS011;57976;48.174;16.370;2022-10-30T00:35:16;13.30;;;7.40;;
70487;SDS011;57976;48.174;16.370;2022-10-30T00:37:21;12.50;;;6.80;;
70487;SDS011;57976;48.174;16.370;2022-10-30T00:39:26;13.60;;;6.80;;
70487;SDS011;57976;48.174;16.370;2022-10-30T00:41:30;13.40;;;6.80;;
70487;SDS011;57976;48.174;16.370;2022-10-30T00:43:38;12.40;;;6.30;;
70487;SDS011;57976;48.174;16.370;2022-10-30T00:45:43;12.30;;;6.40;;
70487;SDS011;57976;48.174;16.370;2022-10-30T00:47:49;13.20;;;6.40;;
70487;SDS011;57976;48.174;16.370;2022-10-30T00:50:00;11.90;;;6.60;;
70487;SDS011;57976;48.174;16.370;2022-10-30T00:52:07;11.80;;;6.30;;
70487;SDS011;57976;48.174;16.370;2022-10-30T00:54:13;10.10;;;5.50;;
70487;SDS011;57976;48.174;16.370;2022-10-30T00:56:19;11.20;;;6.00;;
70487;SDS011;57976;48.174;16.370;2022-10-30T00:58:26;11.20;;;5.90;;
70487;SDS011;57976;48.174;16.370;2022-10-30T01:00:34;11.00;;;6.10;;
70487;SDS011;57976;48.174;16.370;2022-10-30T01:02:41;11.50;;;6.20;;
70487;SDS011;57976;48.174;16.370;2022-10-30T01:04:47;12.40;;;6.30;;
70487;SDS011;57976;48.174;16.370;2022-10-30T01:06:54;12.90;;;6.90;;
70487;SDS011;57976;48.174;16.370;2022-10-30T01:09:01;12.00;;;7.00;;
70487;SDS011;57976;48.174;16.370;2022-10-30T01:11:07;13.30;;;7.40;;
70487;SDS011;57976;48.174;16.370;2022-10-30T01:13:13;12.40;;;6.70;;
70487;SDS011;57976;48.174;16.370;2022-10-30T01:15:21;11.20;;;6.10;;
70487;SDS011;57976;48.174;16.370;2022-10-30T01:17:34;12.60;;;6.40;;
70487;SDS011;57976;48.174;16.370;2022-10-30T01:19:50;11.10;;;6.00;;
70487;SDS011;57976;48.174;16.370;2022-10-30T01:22:16;11.00;;;6.00;;
70487;SDS011;57976;48.174;16.370;2022-10-30T01:24:30;13.70;;;6.20;;
70487;SDS011;57976;48.174;16.370;2022-10-30T01:26:45;10.90;;;6.20;;
70487;SDS011;57976;48.174;16.370;2022-10-30T01:29:02;11.00;;;5.70;;
70487;SDS011;57976;48.174;16.370;2022-10-30T01:31:19;11.10;;;6.10;;
70487;SDS011;57976;48.174;16.370;2022-10-30T01:33:39;12.00;;;6.30;;
70487;SDS011;57976;48.174;16.370;2022-10-30T01:36:00;10.80;;;5.70;;
70487;SDS011;57976;48.174;16.370;2022-10-30T01:38:13;12.20;;;6.00;;
70487;SDS011;57976;48.174;16.370;2022-10-30T01:40:26;11.20;;;5.90;;
70487;SDS011;57976;48.174;16.370;2022-10-30T01:42:47;12.00;;;6.30;;
70487;SDS011;57976;48.174;16.370;2022-10-30T01:45:07;12.80;;;6.40;;
70487;SDS011;57976;48.174;16.370;2022-10-30T01:47:19;12.30;;;6.70;;
70487;SDS011;57976;48.174;16.370;2022-10-30T01:49:46;11.90;;;6.50;;
70487;SDS011;57976;48.174;16.370;2022-10-30T01:52:12;11.70;;;6.40;;
70487;SDS011;57976;48.174;16.370;2022-10-30T01:54:27;12.90;;;7.00;;
70487;SDS011;57976;48.174;16.370;2022-10-30T01:56:39;11.80;;;6.30;;
70487;SDS011;57976;48.174;16.370;2022-10-30T01:58:56;12.40;;;6.40;;
70487;SDS011;57976;48.174;16.370;2022-10-30T02:01:09;10.30;;;5.60;;
70487;SDS011;57976;48.174;16.370;2022-10-30T02:03:14;11.70;;;6.20;;
70487;SDS011;57976;48.174;16.370;2022-10-30T02:05:20;11.70;;;6.20;;
70487;SDS011;57976;48.174;16.370;2022-10-30T02:07:32;11.70;;;6.30;;
70487;SDS011;57976;48.174;16.370;2022-10-30T02:09:37;12.50;;;6.50;;
70487;SDS011;57976;48.174;16.370;2022-10-30T02:11:42;12.30;;;6.50;;
70487;SDS011;57976;48.174;16.370;2022-10-30T02:13:48;12.70;;;6.50;;
70487;SDS011;57976;48.174;16.370;2022-10-30T02:15:56;14.10;;;7.40;;
70487;SDS011;57976;48.174;16.370;2022-10-30T02:18:01;14.60;;;7.20;;
70487;SDS011;57976;48.174;16.370;2022-10-30T02:22:18;14.40;;;6.90;;
70487;SDS011;57976;48.174;16.370;2022-10-30T02:24:23;14.00;;;7.20;;
70487;SDS011;57976;48.174;16.370;2022-10-30T02:26:28;14.00;;;7.20;;
70487;SDS011;57976;48.174;16.370;2022-10-30T02:28:33;14.70;;;7.70;;
70487;SDS011;57976;48.174;16.370;2022-10-30T02:30:37;18.20;;;8.70;;
70487;SDS011;57976;48.174;16.370;2022-10-30T02:32:43;14.90;;;7.70;;
70487;SDS011;57976;48.174;16.370;2022-10-30T02:34:47;13.00;;;7.00;;
70487;SDS011;57976;48.174;16.370;2022-10-30T02:36:52;16.20;;;8.00;;
70487;SDS011;57976;48.174;16.370;2022-10-30T02:38:57;14.60;;;7.40;;
70487;SDS011;57976;48.174;16.370;2022-10-30T02:41:02;14.90;;;7.70;;
70487;SDS011;57976;48.174;16.370;2022-10-30T02:43:07;15.00;;;7.60;;
70487;SDS011;57976;48.174;16.370;2022-10-30T02:45:11;15.50;;;7.90;;
70487;SDS011;57976;48.174;16.370;2022-10-30T02:47:16;13.10;;;6.90;;
70487;SDS011;57976;48.174;16.370;2022-10-30T02:49:21;13.50;;;6.90;;
70487;SDS011;57976;48.174;16.370;2022-10-30T02:51:26;12.30;;;6.60;;
70487;SDS011;57976;48.174;16.370;2022-10-30T02:53:33;13.00;;;6.70;;
70487;SDS011;57976;48.174;16.370;2022-10-30T02:55:38;13.30;;;6.70;;
70487;SDS011;57976;48.174;16.370;2022-10-30T02:57:43;12.80;;;6.10;;
70487;SDS011;57976;48.174;16.370;2022-10-30T02:59:48;11.90;;;6.10;;
70487;SDS011;57976;48.174;16.370;2022-10-30T03:01:52;12.30;;;6.40;;
70487;SDS011;57976;48.174;16.370;2022-10-30T03:03:57;12.00;;;6.10;;
70487;SDS011;57976;48.174;16.370;2022-10-30T03:06:03;11.60;;;6.20;;
70487;SDS011;57976;48.174;16.370;2022-10-30T03:08:09;11.10;;;5.70;;
70487;SDS011;57976;48.174;16.370;2022-10-30T03:10:14;11.10;;;5.90;;
70487;SDS011;57976;48.174;16.370;2022-10-30T03:12:19;11.60;;;6.30;;
70487;SDS011;57976;48.174;16.370;2022-10-30T03:14:24;11.80;;;6.30;;
70487;SDS011;57976;48.174;16.370;2022-10-30T03:16:29;12.10;;;6.00;;
70487;SDS011;57976;48.174;16.370;2022-10-30T03:18:33;16.20;;;8.60;;
70487;SDS011;57976;48.174;16.370;2022-10-30T03:20:43;10.80;;;6.10;;
70487;SDS011;57976;48.174;16.370;2022-10-30T03:22:48;10.00;;;5.30;;
70487;SDS011;57976;48.174;16.370;2022-10-30T03:24:52;10.40;;;5.40;;
70487;SDS011;57976;48.174;16.370;2022-10-30T03:26:57;11.70;;;6.00;;
70487;SDS011;57976;48.174;16.370;2022-10-30T03:29:02;11.00;;;5.90;;
70487;SDS011;57976;48.174;16.370;2022-10-30T03:31:08;12.30;;;6.50;;
70487;SDS011;57976;48.174;16.370;2022-10-30T03:33:14;11.90;;;6.30;;
70487;SDS011;57976;48.174;16.370;2022-10-30T03:35:19;12.60;;;6.40;;
70487;SDS011;57976;48.174;16.370;2022-10-30T03:37:24;12.10;;;6.10;;
70487;SDS011;57976;48.174;16.370;2022-10-30T03:39:29;12.00;;;6.40;;
70487;SDS011;57976;48.174;16.370;2022-10-30T03:41:34;12.40;;;6.50;;
70487;SDS011;57976;48.174;16.370;2022-10-30T03:43:39;12.60;;;6.50;;
70487;SDS011;57976;48.174;16.370;2022-10-30T03:45:46;12.20;;;6.20;;
70487;SDS011;57976;48.174;16.370;2022-10-30T03:47:53;12.50;;;6.00;;
70487;SDS011;57976;48.174;16.370;2022-10-30T03:49:58;10.30;;;5.50;;
70487;SDS011;57976;48.174;16.370;2022-10-30T03:52:03;10.80;;;5.80;;
70487;SDS011;57976;48.174;16.370;2022-10-30T03:54:08;10.90;;;5.70;;
70487;SDS011;57976;48.174;16.370;2022-10-30T03:56:13;10.50;;;6.10;;
70487;SDS011;57976;48.174;16.370;2022-10-30T03:58:21;11.30;;;6.00;;
70487;SDS011;57976;48.174;16.370;2022-10-30T04:00:32;11.20;;;5.90;;
70487;SDS011;57976;48.174;16.370;2022-10-30T04:02:38;11.90;;;6.20;;
70487;SDS011;57976;48.174;16.370;2022-10-30T04:04:46;11.20;;;6.00;;
70487;SDS011;57976;48.174;16.370;2022-10-30T04:06:51;11.10;;;5.80;;
70487;SDS011;57976;48.174;16.370;2022-10-30T04:08:57;11.80;;;6.10;;
70487;SDS011;57976;48.174;16.370;2022-10-30T04:11:04;11.30;;;6.20;;
70487;SDS011;57976;48.174;16.370;2022-10-30T04:13:12;12.00;;;6.00;;
70487;SDS011;57976;48.174;16.370;2022-10-30T04:15:22;11.60;;;6.10;;
70487;SDS011;57976;48.174;16.370;2022-10-30T04:17:27;11.60;;;5.90;;
70487;SDS011;57976;48.174;16.370;2022-10-30T04:19:32;11.60;;;6.10;;
70487;SDS011;57976;48.174;16.370;2022-10-30T04:21:37;12.40;;;6.50;;
70487;SDS011;57976;48.174;16.370;2022-10-30T04:23:42;12.90;;;6.60;;
70487;SDS011;57976;48.174;16.370;2022-10-30T04:25:47;11.90;;;6.40;;
70487;SDS011;57976;48.174;16.370;2022-10-30T04:27:52;11.80;;;6.50;;
70487;SDS011;57976;48.174;16.370;2022-10-30T04:29:58;12.10;;;6.20;;
70487;SDS011;57976;48.174;16.370;2022-10-30T04:32:02;11.60;;;6.20;;
70487;SDS011;57976;48.174;16.370;2022-10-30T04:34:12;12.20;;;6.40;;
70487;SDS011;57976;48.174;16.370;2022-10-30T04:36:17;11.20;;;6.10;;
70487;SDS011;57976;48.174;16.370;2022-10-30T04:38:22;10.90;;;6.00;;
70487;SDS011;57976;48.174;16.370;2022-10-30T04:40:28;12.50;;;6.00;;
70487;SDS011;57976;48.174;16.370;2022-10-30T04:42:36;12.70;;;6.50;;
70487;SDS011;57976;48.174;16.370;2022-10-30T04:44:41;10.80;;;5.90;;
70487;SDS011;57976;48.174;16.370;2022-10-30T04:46:45;11.10;;;6.00;;
70487;SDS011;57976;48.174;16.370;2022-10-30T04:48:50;11.30;;;6.10;;
70487;SDS011;57976;48.174;16.370;2022-10-30T04:50:57;13.80;;;6.30;;
70487;SDS011;57976;48.174;16.370;2022-10-30T04:53:03;12.40;;;6.60;;
70487;SDS011;57976;48.174;16.370;2022-10-30T04:55:09;12.10;;;6.60;;
70487;SDS011;57976;48.174;16.370;2022-10-30T04:57:17;11.00;;;6.10;;
70487;SDS011;57976;48.174;16.370;2022-10-30T04:59:21;13.80;;;6.50;;
70487;SDS011;57976;48.174;16.370;2022-10-30T05:01:27;10.80;;;5.80;;
70487;SDS011;57976;48.174;16.370;2022-10-30T05:03:32;12.00;;;6.30;;
70487;SDS011;57976;48.174;16.370;2022-10-30T05:05:40;12.20;;;6.30;;
70487;SDS011;57976;48.174;16.370;2022-10-30T05:07:45;13.50;;;6.50;;
70487;SDS011;57976;48.174;16.370;2022-10-30T05:09:51;12.60;;;6.80;;
70487;SDS011;57976;48.174;16.370;2022-10-30T05:11:56;12.70;;;6.40;;
70487;SDS011;57976;48.174;16.370;2022-10-30T05:14:02;12.70;;;6.60;;
70487;SDS011;57976;48.174;16.370;2022-10-30T05:16:07;16.00;;;7.70;;
70487;SDS011;57976;48.174;16.370;2022-10-30T05:18:12;14.20;;;7.60;;
70487;SDS011;57976;48.174;16.370;2022-10-30T05:20:18;15.30;;;7.90;;
70487;SDS011;57976;48.174;16.370;2022-10-30T05:22:23;13.40;;;7.40;;
70487;SDS011;57976;48.174;16.370;2022-10-30T05:24:28;13.70;;;7.20;;
70487;SDS011;57976;48.174;16.370;2022-10-30T05:26:34;13.50;;;7.00;;
70487;SDS011;57976;48.174;16.370;2022-10-30T05:28:38;12.40;;;6.30;;
70487;SDS011;57976;48.174;16.370;2022-10-30T05:30:43;14.60;;;7.50;;
70487;SDS011;57976;48.174;16.370;2022-10-30T05:33:01;12.60;;;6.80;;
70487;SDS011;57976;48.174;16.370;2022-10-30T05:35:07;11.90;;;6.40;;
70487;SDS011;57976;48.174;16.370;2022-10-30T05:37:12;11.90;;;6.50;;
70487;SDS011;57976;48.174;16.370;2022-10-30T05:39:17;11.80;;;6.20;;
70487;SDS011;57976;48.174;16.370;2022-10-30T05:41:24;10.80;;;5.80;;
70487;SDS011;57976;48.174;16.370;2022-10-30T05:43:28;11.10;;;5.80;;
70487;SDS011;57976;48.174;16.370;2022-10-30T05:45:34;10.80;;;5.70;;
70487;SDS011;57976;48.174;16.370;2022-10-30T05:47:39;10.50;;;5.80;;
70487;SDS011;57976;48.174;16.370;2022-10-30T05:49:43;12.80;;;6.80;;
70487;SDS011;57976;48.174;16.370;2022-10-30T05:51:51;12.80;;;6.50;;
70487;SDS011;57976;48.174;16.370;2022-10-30T05:53:56;12.00;;;6.30;;
70487;SDS011;57976;48.174;16.370;2022-10-30T05:56:02;12.00;;;6.50;;
70487;SDS011;57976;48.174;16.370;2022-10-30T05:58:09;11.90;;;6.20;;
70487;SDS011;57976;48.174;16.370;2022-10-30T06:00:15;12.10;;;6.20;;
70487;SDS011;57976;48.174;16.370;2022-10-30T06:02:22;13.00;;;7.30;;
70487;SDS011;57976;48.174;16.370;2022-10-30T06:04:26;12.30;;;6.50;;
70487;SDS011;57976;48.174;16.370;2022-10-30T06:06:32;11.50;;;6.60;;
70487;SDS011;57976;48.174;16.370;2022-10-30T06:08:37;10.20;;;5.60;;
70487;SDS011;57976;48.174;16.370;2022-10-30T06:11:05;11.30;;;5.80;;
70487;SDS011;57976;48.174;16.370;2022-10-30T06:13:14;11.20;;;5.80;;
70487;SDS011;57976;48.174;16.370;2022-10-30T06:15:24;11.00;;;5.70;;
70487;SDS011;57976;48.174;16.370;2022-10-30T06:17:30;11.80;;;6.50;;
70487;SDS011;57976;48.174;16.370;2022-10-30T06:19:45;10.90;;;5.80;;
70487;SDS011;57976;48.174;16.370;2022-10-30T06:22:15;10.00;;;5.50;;
70487;SDS011;57976;48.174;16.370;2022-10-30T06:24:24;10.10;;;5.90;;
70487;SDS011;57976;48.174;16.370;2022-10-30T06:26:43;10.50;;;5.50;;
70487;SDS011;57976;48.174;16.370;2022-10-30T06:28:49;10.60;;;5.50;;
70487;SDS011;57976;48.174;16.370;2022-10-30T06:30:53;10.10;;;5.40;;
70487;SDS011;57976;48.174;16.370;2022-10-30T06:32:58;10.90;;;5.80;;
70487;SDS011;57976;48.174;16.370;2022-10-30T06:35:05;11.20;;;5.60;;
70487;SDS011;57976;48.174;16.370;2022-10-30T06:37:11;9.40;;;4.90;;
70487;SDS011;57976;48.174;16.370;2022-10-30T06:39:16;9.50;;;5.40;;
70487;SDS011;57976;48.174;16.370;2022-10-30T06:41:39;9.10;;;5.20;;
70487;SDS011;57976;48.174;16.370;2022-10-30T06:44:06;8.60;;;4.50;;
70487;SDS011;57976;48.174;16.370;2022-10-30T06:46:14;9.70;;;4.70;;
70487;SDS011;57976;48.174;16.370;2022-10-30T06:48:19;8.30;;;4.80;;
70487;SDS011;57976;48.174;16.370;2022-10-30T06:50:27;8.90;;;4.90;;
70487;SDS011;57976;48.174;16.370;2022-10-30T06:52:32;8.50;;;4.70;;
70487;SDS011;57976;48.174;16.370;2022-10-30T06:54:37;8.60;;;4.60;;
70487;SDS011;57976;48.174;16.370;2022-10-30T06:57:14;8.70;;;5.50;;
70487;SDS011;57976;48.174;16.370;2022-10-30T06:59:54;8.70;;;4.80;;
70487;SDS011;57976;48.174;16.370;2022-10-30T07:02:22;8.30;;;4.90;;
70487;SDS011;57976;48.174;16.370;2022-10-30T07:04:30;9.40;;;4.90;;
70487;SDS011;57976;48.174;16.370;2022-10-30T07:06:35;7.70;;;4.10;;
70487;SDS011;57976;48.174;16.370;2022-10-30T07:08:40;8.60;;;4.40;;
70487;SDS011;57976;48.174;16.370;2022-10-30T07:10:46;8.00;;;4.10;;
70487;SDS011;57976;48.174;16.370;2022-10-30T07:13:11;8.60;;;4.70;;
70487;SDS011;57976;48.174;16.370;2022-10-30T07:15:21;7.80;;;4.00;;
70487;SDS011;57976;48.174;16.370;2022-10-30T07:17:57;8.50;;;4.70;;
70487;SDS011;57976;48.174;16.370;2022-10-30T07:20:05;7.70;;;4.20;;
70487;SDS011;57976;48.174;16.370;2022-10-30T07:22:11;8.30;;;4.50;;
70487;SDS011;57976;48.174;16.370;2022-10-30T07:24:19;8.20;;;4.50;;
70487;SDS011;57976;48.174;16.370;2022-10-30T07:26:50;8.70;;;4.50;;
70487;SDS011;57976;48.174;16.370;2022-10-30T07:29:17;9.80;;;4.90;;
70487;SDS011;57976;48.174;16.370;2022-10-30T07:31:39;10.70;;;5.80;;
70487;SDS011;57976;48.174;16.370;2022-10-30T07:34:32;10.00;;;4.90;;
70487;SDS011;57976;48.174;16.370;2022-10-30T07:36:54;10.10;;;5.10;;
70487;SDS011;57976;48.174;16.370;2022-10-30T07:39:16;9.00;;;4.70;;
70487;SDS011;57976;48.174;16.370;2022-10-30T07:41:39;9.10;;;4.70;;
70487;SDS011;57976;48.174;16.370;2022-10-30T07:44:09;10.40;;;5.00;;
70487;SDS011;57976;48.174;16.370;2022-10-30T07:46:21;10.30;;;4.80;;
70487;SDS011;57976;48.174;16.370;2022-10-30T07:48:41;9.70;;;4.90;;
70487;SDS011;57976;48.174;16.370;2022-10-30T07:51:03;9.60;;;4.40;;
70487;SDS011;57976;48.174;16.370;2022-10-30T07:53:09;8.80;;;4.30;;
70487;SDS011;57976;48.174;16.370;2022-10-30T07:55:15;10.50;;;4.90;;
70487;SDS011;57976;48.174;16.370;2022-10-30T07:57:37;10.60;;;5.00;;
70487;SDS011;57976;48.174;16.370;2022-10-30T08:00:02;10.30;;;4.70;;
70487;SDS011;57976;48.174;16.370;2022-10-30T08:02:17;9.80;;;5.00;;
70487;SDS011;57976;48.174;16.370;2022-10-30T08:04:40;10.00;;;4.90;;
70487;SDS011;57976;48.174;16.370;2022-10-30T08:07:06;10.90;;;4.50;;
70487;SDS011;57976;48.174;16.370;2022-10-30T08:09:11;9.80;;;4.80;;
70487;SDS011;57976;48.174;16.370;2022-10-30T08:11:15;8.70;;;4.40;;
70487;SDS011;57976;48.174;16.370;2022-10-30T08:13:20;9.30;;;4.40;;
70487;SDS011;57976;48.174;16.370;2022-10-30T08:15:25;10.40;;;4.30;;
70487;SDS011;57976;48.174;16.370;2022-10-30T08:17:29;8.70;;;4.20;;
70487;SDS011;57976;48.174;16.370;2022-10-30T08:19:34;9.10;;;4.30;;
70487;SDS011;57976;48.174;16.370;2022-10-30T08:21:39;8.20;;;4.10;;
70487;SDS011;57976;48.174;16.370;2022-10-30T08:23:48;8.80;;;4.60;;
70487;SDS011;57976;48.174;16.370;2022-10-30T08:25:53;10.90;;;5.60;;
70487;SDS011;57976;48.174;16.370;2022-10-30T08:28:01;11.10;;;5.30;;
70487;SDS011;57976;48.174;16.370;2022-10-30T08:30:11;10.80;;;5.30;;
70487;SDS011;57976;48.174;16.370;2022-10-30T08:32:16;12.50;;;5.10;;
70487;SDS011;57976;48.174;16.370;2022-10-30T08:34:40;11.30;;;5.50;;
70487;SDS011;57976;48.174;16.370;2022-10-30T08:36:46;10.90;;;5.40;;
70487;SDS011;57976;48.174;16.370;2022-10-30T08:38:51;11.60;;;5.60;;
70487;SDS011;57976;48.174;16.370;2022-10-30T08:41:07;10.70;;;5.50;;
70487;SDS011;57976;48.174;16.370;2022-10-30T08:43:17;10.90;;;5.90;;
70487;SDS011;57976;48.174;16.370;2022-10-30T08:45:22;11.50;;;6.10;;
70487;SDS011;57976;48.174;16.370;2022-10-30T08:47:44;11.30;;;5.60;;
70487;SDS011;57976;48.174;16.370;2022-10-30T08:49:49;11.10;;;5.40;;
70487;SDS011;57976;48.174;16.370;2022-10-30T08:51:56;9.80;;;5.20;;
70487;SDS011;57976;48.174;16.370;2022-10-30T08:54:01;10.50;;;5.60;;
70487;SDS011;57976;48.174;16.370;2022-10-30T08:56:07;9.90;;;5.40;;
70487;SDS011;57976;48.174;16.370;2022-10-30T08:58:35;10.80;;;5.60;;
70487;SDS011;57976;48.174;16.370;2022-10-30T09:00:43;10.10;;;5.50;;
70487;SDS011;57976;48.174;16.370;2022-10-30T09:02:47;11.50;;;5.30;;
70487;SDS011;57976;48.174;16.370;2022-10-30T09:05:15;12.70;;;6.80;;
70487;SDS011;57976;48.174;16.370;2022-10-30T09:07:38;11.30;;;6.00;;
70487;SDS011;57976;48.174;16.370;2022-10-30T09:10:12;9.90;;;5.70;;
70487;SDS011;57976;48.174;16.370;2022-10-30T09:12:17;10.10;;;5.30;;
70487;SDS011;57976;48.174;16.370;2022-10-30T09:14:22;10.20;;;5.20;;
70487;SDS011;57976;48.174;16.370;2022-10-30T09:16:26;11.40;;;6.40;;
70487;SDS011;57976;48.174;16.370;2022-10-30T09:18:31;11.50;;;6.20;;
70487;SDS011;57976;48.174;16.370;2022-10-30T09:20:36;11.80;;;6.50;;
70487;SDS011;57976;48.174;16.370;2022-10-30T09:22:40;11.90;;;6.60;;
70487;SDS011;57976;48.174;16.370;2022-10-30T09:24:46;12.60;;;6.40;;
70487;SDS011;57976;48.174;16.370;2022-10-30T09:27:23;14.40;;;7.00;;
70487;SDS011;57976;48.174;16.370;2022-10-30T09:29:30;12.60;;;6.80;;
70487;SDS011;57976;48.174;16.370;2022-10-30T09:31:35;13.60;;;7.00;;
70487;SDS011;57976;48.174;16.370;2022-10-30T09:33:40;13.80;;;7.10;;
70487;SDS011;57976;48.174;16.370;2022-10-30T09:36:03;13.70;;;7.20;;
70487;SDS011;57976;48.174;16.370;2022-10-30T09:38:08;11.80;;;6.80;;
70487;SDS011;57976;48.174;16.370;2022-10-30T09:40:16;13.00;;;7.40;;
70487;SDS011;57976;48.174;16.370;2022-10-30T09:42:29;12.50;;;6.90;;
70487;SDS011;57976;48.174;16.370;2022-10-30T09:44:47;12.40;;;6.90;;
70487;SDS011;57976;48.174;16.370;2022-10-30T09:47:21;13.80;;;7.60;;
70487;SDS011;57976;48.174;16.370;2022-10-30T09:49:41;14.90;;;7.60;;
70487;SDS011;57976;48.174;16.370;2022-10-30T09:52:07;13.10;;;7.20;;
70487;SDS011;57976;48.174;16.370;2022-10-30T09:54:25;13.80;;;8.10;;
70487;SDS011;57976;48.174;16.370;2022-10-30T09:56:38;12.50;;;6.80;;
70487;SDS011;57976;48.174;16.370;2022-10-30T09:58:48;13.90;;;7.90;;
70487;SDS011;57976;48.174;16.370;2022-10-30T10:01:06;14.00;;;7.90;;
70487;SDS011;57976;48.174;16.370;2022-10-30T10:03:35;13.70;;;7.60;;
70487;SDS011;57976;48.174;16.370;2022-10-30T10:06:25;15.00;;;7.90;;
70487;SDS011;57976;48.174;16.370;2022-10-30T10:08:43;16.10;;;9.30;;
70487;SDS011;57976;48.174;16.370;2022-10-30T10:11:25;13.30;;;7.50;;
70487;SDS011;57976;48.174;16.370;2022-10-30T10:13:33;12.40;;;6.60;;
70487;SDS011;57976;48.174;16.370;2022-10-30T10:15:41;11.70;;;6.90;;
70487;SDS011;57976;48.174;16.370;2022-10-30T10:17:49;24.30;;;14.40;;
70487;SDS011;57976;48.174;16.370;2022-10-30T10:19:57;17.40;;;10.20;;
70487;SDS011;57976;48.174;16.370;2022-10-30T10:22:04;11.40;;;6.90;;
70487;SDS011;57976;48.174;16.370;2022-10-30T10:24:22;12.40;;;6.60;;
70487;SDS011;57976;48.174;16.370;2022-10-30T10:26:34;10.80;;;6.20;;
70487;SDS011;57976;48.174;16.370;2022-10-30T10:28:51;10.30;;;6.40;;
70487;SDS011;57976;48.174;16.370;2022-10-30T10:31:06;10.50;;;5.80;;
70487;SDS011;57976;48.174;16.370;2022-10-30T10:33:24;13.40;;;7.90;;
70487;SDS011;57976;48.174;16.370;2022-10-30T10:35:48;13.00;;;7.50;;
70487;SDS011;57976;48.174;16.370;2022-10-30T10:38:02;12.20;;;6.90;;
70487;SDS011;57976;48.174;16.370;2022-10-30T10:40:17;12.00;;;7.00;;
70487;SDS011;57976;48.174;16.370;2022-10-30T10:42:32;12.00;;;7.00;;
70487;SDS011;57976;48.174;16.370;2022-10-30T10:44:45;13.80;;;8.10;;
70487;SDS011;57976;48.174;16.370;2022-10-30T10:47:10;31.30;;;20.60;;
70487;SDS011;57976;48.174;16.370;2022-10-30T10:49:34;13.10;;;7.80;;
70487;SDS011;57976;48.174;16.370;2022-10-30T10:51:48;12.10;;;7.40;;
70487;SDS011;57976;48.174;16.370;2022-10-30T10:53:58;14.60;;;8.80;;
70487;SDS011;57976;48.174;16.370;2022-10-30T10:56:13;11.80;;;7.10;;
70487;SDS011;57976;48.174;16.370;2022-10-30T10:58:22;15.20;;;9.40;;
70487;SDS011;57976;48.174;16.370;2022-10-30T11:00:32;13.00;;;7.50;;
70487;SDS011;57976;48.174;16.370;2022-10-30T11:02:39;14.60;;;9.20;;
70487;SDS011;57976;48.174;16.370;2022-10-30T11:04:48;13.20;;;7.50;;
70487;SDS011;57976;48.174;16.370;2022-10-30T11:06:57;13.90;;;8.30;;
70487;SDS011;57976;48.174;16.370;2022-10-30T11:09:13;13.40;;;8.20;;
70487;SDS011;57976;48.174;16.370;2022-10-30T11:11:18;14.30;;;8.80;;
70487;SDS011;57976;48.174;16.370;2022-10-30T11:13:24;13.60;;;8.70;;
70487;SDS011;57976;48.174;16.370;2022-10-30T11:15:37;12.60;;;7.50;;
70487;SDS011;57976;48.174;16.370;2022-10-30T11:17:53;14.50;;;8.80;;
70487;SDS011;57976;48.174;16.370;2022-10-30T11:20:10;13.50;;;7.90;;
70487;SDS011;57976;48.174;16.370;2022-10-30T11:22:22;12.10;;;7.50;;
70487;SDS011;57976;48.174;16.370;2022-10-30T11:24:30;12.60;;;7.80;;
70487;SDS011;57976;48.174;16.370;2022-10-30T11:26:36;13.20;;;7.90;;
70487;SDS011;57976;48.174;16.370;2022-10-30T11:28:42;12.10;;;7.70;;
70487;SDS011;57976;48.174;16.370;2022-10-30T11:30:50;13.40;;;8.00;;
70487;SDS011;57976;48.174;16.370;2022-10-30T11:33:21;12.40;;;7.60;;
70487;SDS011;57976;48.174;16.370;2022-10-30T11:35:29;13.10;;;7.50;;
70487;SDS011;57976;48.174;16.370;2022-10-30T11:37:43;12.40;;;7.90;;
70487;SDS011;57976;48.174;16.370;2022-10-30T11:39:54;13.30;;;7.70;;
70487;SDS011;57976;48.174;16.370;2022-10-30T11:42:09;14.00;;;8.10;;
70487;SDS011;57976;48.174;16.370;2022-10-30T11:44:18;15.60;;;9.40;;
70487;SDS011;57976;48.174;16.370;2022-10-30T11:46:23;14.30;;;9.00;;
70487;SDS011;57976;48.174;16.370;2022-10-30T11:48:28;17.10;;;9.60;;
70487;SDS011;57976;48.174;16.370;2022-10-30T11:50:35;17.80;;;10.00;;
70487;SDS011;57976;48.174;16.370;2022-10-30T11:52:48;18.60;;;10.90;;
70487;SDS011;57976;48.174;16.370;2022-10-30T11:54:57;17.80;;;10.80;;
70487;SDS011;57976;48.174;16.370;2022-10-30T11:57:20;18.40;;;11.00;;
70487;SDS011;57976;48.174;16.370;2022-10-30T11:59:31;20.60;;;12.20;;
70487;SDS011;57976;48.174;16.370;2022-10-30T12:01:35;19.50;;;11.10;;
70487;SDS011;57976;48.174;16.370;2022-10-30T12:03:40;19.10;;;11.30;;
70487;SDS011;57976;48.174;16.370;2022-10-30T12:05:45;20.40;;;11.60;;
70487;SDS011;57976;48.174;16.370;2022-10-30T12:07:52;19.50;;;11.30;;
70487;SDS011;57976;48.174;16.370;2022-10-30T12:10:20;20.70;;;11.60;;
70487;SDS011;57976;48.174;16.370;2022-10-30T12:12:28;20.00;;;11.80;;
70487;SDS011;57976;48.174;16.370;2022-10-30T12:14:38;21.90;;;12.30;;
70487;SDS011;57976;48.174;16.370;2022-10-30T12:16:44;19.70;;;10.80;;
70487;SDS011;57976;48.174;16.370;2022-10-30T12:18:52;20.60;;;11.20;;
70487;SDS011;57976;48.174;16.370;2022-10-30T12:21:01;20.90;;;12.50;;
70487;SDS011;57976;48.174;16.370;2022-10-30T12:23:09;20.90;;;11.90;;
70487;SDS011;57976;48.174;16.370;2022-10-30T12:25:21;23.50;;;13.50;;
70487;SDS011;57976;48.174;16.370;2022-10-30T12:27:28;22.70;;;13.60;;
70487;SDS011;57976;48.174;16.370;2022-10-30T12:29:38;22.80;;;12.60;;
70487;SDS011;57976;48.174;16.370;2022-10-30T12:32:06;23.10;;;13.00;;
70487;SDS011;57976;48.174;16.370;2022-10-30T12:34:22;22.00;;;13.10;;
70487;SDS011;57976;48.174;16.370;2022-10-30T12:36:34;22.20;;;12.90;;
70487;SDS011;57976;48.174;16.370;2022-10-30T12:38:46;23.00;;;13.10;;
70487;SDS011;57976;48.174;16.370;2022-10-30T12:40:57;24.10;;;13.80;;
70487;SDS011;57976;48.174;16.370;2022-10-30T12:43:11;23.80;;;13.80;;
70487;SDS011;57976;48.174;16.370;2022-10-30T12:45:19;25.00;;;14.20;;